createdAt,value
2023-03-15T00:02:12.278Z,4.06
2023-03-15T00:04:39.120Z,4.13
2023-03-15T00:07:06.003Z,4.18
2023-03-15T00:09:32.772Z,4.26
2023-03-15T00:11:59.846Z,4.20
2023-03-15T00:14:26.639Z,4.12
2023-03-15T00:16:54.787Z,4.07
2023-03-15T00:19:21.715Z,4.12
2023-03-15T00:21:49.619Z,4.18
2023-03-15T00:24:16.382Z,4.13
2023-03-15T00:26:43.195Z,4.14
2023-03-15T00:29:10.098Z,4.16
2023-03-15T00:31:36.995Z,4.03
2023-03-15T00:34:04.807Z,4.10
2023-03-15T00:36:32.844Z,4.01
2023-03-15T00:38:59.779Z,3.89
2023-03-15T00:41:26.642Z,3.93
2023-03-15T00:43:54.217Z,3.90
2023-03-15T00:46:21.173Z,3.91
2023-03-15T00:48:50.854Z,3.80
2023-03-15T00:51:22.459Z,3.78
2023-03-15T00:53:51.879Z,3.83
2023-03-15T00:56:27.555Z,3.88
2023-03-15T00:58:54.375Z,3.91
2023-03-15T01:01:30.121Z,3.89
2023-03-15T01:03:57.490Z,3.87
2023-03-15T01:06:28.257Z,3.86
2023-03-15T01:08:56.748Z,3.81
2023-03-15T01:11:27.658Z,3.75
2023-03-15T01:13:59.020Z,3.89
2023-03-15T01:16:27.970Z,3.86
2023-03-15T01:18:55.534Z,3.79
2023-03-15T01:21:24.258Z,3.61
2023-03-15T01:23:52.083Z,3.63
2023-03-15T01:26:20.310Z,3.65
2023-03-15T01:28:48.134Z,3.64
2023-03-15T01:31:25.817Z,3.61
2023-03-15T01:33:54.211Z,3.69
2023-03-15T01:36:21.976Z,3.72
2023-03-15T01:38:52.283Z,3.64
2023-03-15T01:41:19.902Z,3.69
2023-03-15T01:43:49.518Z,3.74
2023-03-15T01:46:29.892Z,3.64
2023-03-15T01:49:19.711Z,3.55
2023-03-15T01:52:13.028Z,3.59
2023-03-15T01:54:49.699Z,3.63
2023-03-15T01:57:43.171Z,3.59
2023-03-15T02:00:15.245Z,3.60
2023-03-15T02:03:21.434Z,3.55
2023-03-15T02:05:56.533Z,3.63
2023-03-15T02:08:32.722Z,3.57
2023-03-15T02:11:04.504Z,3.58
2023-03-15T02:13:34.658Z,3.55
2023-03-15T02:16:06.724Z,3.55
2023-03-15T02:18:35.733Z,3.58
2023-03-15T02:21:33.220Z,3.57
2023-03-15T02:24:35.724Z,3.51
2023-03-15T02:27:03.599Z,3.48
2023-03-15T02:29:31.100Z,3.47
2023-03-15T02:31:58.717Z,3.40
2023-03-15T02:34:25.905Z,3.35
2023-03-15T02:36:54.093Z,3.34
2023-03-15T02:39:23.250Z,3.45
2023-03-15T02:41:58.810Z,3.37
2023-03-15T02:44:42.752Z,3.45
2023-03-15T02:47:26.905Z,3.52
2023-03-15T02:49:54.327Z,3.53
2023-03-15T02:52:22.857Z,3.45
2023-03-15T02:54:50.576Z,3.38
2023-03-15T02:57:19.449Z,3.37
2023-03-15T02:59:46.702Z,3.34
2023-03-15T03:02:13.841Z,3.38
2023-03-15T03:04:41.562Z,3.32
2023-03-15T03:07:08.520Z,3.30
2023-03-15T03:09:35.469Z,3.26
2023-03-15T03:12:02.269Z,3.29
2023-03-15T03:14:29.099Z,3.29
2023-03-15T03:16:55.874Z,3.27
2023-03-15T03:19:25.624Z,3.26
2023-03-15T03:21:54.242Z,3.24
2023-03-15T03:24:21.604Z,3.19
2023-03-15T03:26:48.403Z,3.19
2023-03-15T03:29:16.670Z,3.18
2023-03-15T03:31:44.719Z,3.25
2023-03-15T03:34:16.526Z,3.19
2023-03-15T03:36:43.819Z,3.16
2023-03-15T03:39:11.542Z,3.12
2023-03-15T03:41:38.402Z,3.02
2023-03-15T03:44:05.882Z,3.00
2023-03-15T03:46:32.752Z,2.93
2023-03-15T03:48:59.498Z,2.98
2023-03-15T03:51:26.227Z,2.99
2023-03-15T03:53:52.971Z,2.98
2023-03-15T03:56:19.711Z,2.92
2023-03-15T03:58:46.511Z,2.95
2023-03-15T04:01:13.254Z,2.91
2023-03-15T04:03:40.047Z,2.90
2023-03-15T04:06:06.892Z,2.99
2023-03-15T04:08:34.003Z,2.90
2023-03-15T04:11:03.864Z,2.82
2023-03-15T04:13:31.480Z,2.79
2023-03-15T04:15:58.616Z,2.80
2023-03-15T04:18:25.471Z,2.76
2023-03-15T04:20:54.508Z,2.70
2023-03-15T04:23:23.553Z,2.75
2023-03-15T04:25:58.003Z,2.87
2023-03-15T04:28:24.879Z,2.83
2023-03-15T04:30:52.054Z,2.80
2023-03-15T04:33:18.799Z,2.78
2023-03-15T04:35:45.680Z,2.58
2023-03-15T04:38:12.498Z,2.58
2023-03-15T04:40:39.358Z,2.63
2023-03-15T04:43:06.432Z,2.59
2023-03-15T04:45:33.640Z,2.61
2023-03-15T04:48:01.688Z,2.77
2023-03-15T04:50:30.305Z,2.72
2023-03-15T04:52:59.669Z,2.71
2023-03-15T04:55:26.657Z,2.69
2023-03-15T04:57:53.786Z,2.55
2023-03-15T05:00:21.666Z,2.42
2023-03-15T05:02:54.723Z,2.37
2023-03-15T05:05:23.819Z,2.34
2023-03-15T05:07:51.006Z,2.34
2023-03-15T05:10:18.261Z,2.39
2023-03-15T05:12:45.312Z,2.44
2023-03-15T05:15:12.813Z,2.40
2023-03-15T05:17:39.660Z,2.41
2023-03-15T05:20:11.821Z,2.30
2023-03-15T05:22:40.771Z,2.12
2023-03-15T05:25:10.360Z,2.16
2023-03-15T05:27:38.263Z,2.12
2023-03-15T05:30:07.943Z,2.13
2023-03-15T05:32:35.092Z,2.05
2023-03-15T05:35:02.782Z,2.00
2023-03-15T05:37:32.281Z,1.97
2023-03-15T05:40:00.341Z,1.78
2023-03-15T05:42:27.500Z,1.98
2023-03-15T05:44:55.368Z,1.88
2023-03-15T05:47:23.594Z,1.95
2023-03-15T05:49:50.589Z,1.92
2023-03-15T05:52:17.419Z,1.87
2023-03-15T05:54:45.147Z,1.91
2023-03-15T05:57:12.046Z,1.87
2023-03-15T05:59:38.813Z,1.75
2023-03-15T06:02:05.870Z,1.82
2023-03-15T06:04:32.720Z,1.92
2023-03-15T06:06:59.498Z,1.90
2023-03-15T06:09:26.391Z,1.92
2023-03-15T06:11:53.585Z,1.88
2023-03-15T06:14:20.550Z,1.83
2023-03-15T06:16:47.367Z,1.88
2023-03-15T06:19:14.296Z,1.95
2023-03-15T06:21:41.251Z,2.23
2023-03-15T06:24:08.496Z,2.27
2023-03-15T06:26:35.377Z,2.44
2023-03-15T06:29:02.336Z,2.56
2023-03-15T06:31:29.267Z,2.73
2023-03-15T06:33:56.298Z,2.77
2023-03-15T06:36:25.273Z,2.63
2023-03-15T06:38:54.467Z,2.43
2023-03-15T06:41:21.602Z,2.45
2023-03-15T06:43:48.450Z,2.47
2023-03-15T06:46:15.607Z,2.47
2023-03-15T06:48:42.433Z,2.42
2023-03-15T06:51:09.475Z,2.38
2023-03-15T06:53:36.292Z,2.18
2023-03-15T06:56:03.322Z,2.20
2023-03-15T06:58:30.186Z,2.34
2023-03-15T07:00:56.996Z,2.42
2023-03-15T07:03:23.877Z,2.46
2023-03-15T07:05:55.077Z,2.53
2023-03-15T07:08:25.271Z,2.66
2023-03-15T07:10:52.600Z,2.66
2023-03-15T07:13:20.375Z,2.68
2023-03-15T07:15:54.052Z,2.75
2023-03-15T07:18:21.185Z,2.83
2023-03-15T07:20:49.074Z,2.91
2023-03-15T07:23:16.000Z,2.91
2023-03-15T07:25:54.451Z,2.95
2023-03-15T07:28:23.774Z,2.99
2023-03-15T07:30:58.638Z,3.04
2023-03-15T07:33:28.057Z,3.18
2023-03-15T07:35:55.944Z,3.30
2023-03-15T07:38:31.009Z,3.34
2023-03-15T07:40:58.347Z,3.38
2023-03-15T07:43:25.241Z,3.46
2023-03-15T07:45:52.138Z,3.53
2023-03-15T07:48:19.173Z,3.62
2023-03-15T07:50:48.260Z,3.67
2023-03-15T07:53:15.496Z,3.82
2023-03-15T07:55:42.329Z,4.01
2023-03-15T07:58:09.090Z,4.14
2023-03-15T08:00:35.881Z,4.29
2023-03-15T08:03:02.873Z,4.41
2023-03-15T08:05:30.403Z,4.49
2023-03-15T08:07:57.350Z,4.71
2023-03-15T08:10:24.378Z,5.02
2023-03-15T08:12:51.455Z,5.30
2023-03-15T08:15:19.546Z,5.47
2023-03-15T08:17:48.636Z,5.63
2023-03-15T08:20:19.633Z,5.72
2023-03-15T08:22:49.160Z,5.92
2023-03-15T08:25:20.648Z,5.91
2023-03-15T08:27:48.606Z,5.89
2023-03-15T08:30:17.316Z,6.09
2023-03-15T08:32:47.116Z,6.24
2023-03-15T08:35:17.143Z,6.34
2023-03-15T08:37:47.757Z,6.27
2023-03-15T08:40:26.786Z,6.35
2023-03-15T08:42:54.319Z,6.75
2023-03-15T08:45:24.053Z,6.98
2023-03-15T08:48:00.858Z,6.99
2023-03-15T08:50:30.021Z,7.07
2023-03-15T08:52:56.810Z,7.06
2023-03-15T08:55:23.830Z,7.08
2023-03-15T08:57:50.773Z,7.29
2023-03-15T09:00:22.615Z,7.54
2023-03-15T09:02:54.229Z,7.69
2023-03-15T09:05:24.084Z,7.80
2023-03-15T09:07:53.064Z,8.11
2023-03-15T09:10:22.034Z,7.97
2023-03-15T09:12:53.784Z,7.80
2023-03-15T09:15:21.650Z,7.69
2023-03-15T09:17:53.051Z,8.01
2023-03-15T09:20:22.754Z,8.32
2023-03-15T09:22:58.262Z,8.31
2023-03-15T09:25:26.203Z,8.20
2023-03-15T09:27:54.061Z,7.96
2023-03-15T09:30:21.090Z,7.85
2023-03-15T09:32:48.280Z,8.13
2023-03-15T09:35:19.339Z,8.26
2023-03-15T09:37:49.173Z,8.26
2023-03-15T09:40:33.605Z,8.19
2023-03-15T09:43:06.326Z,8.00
2023-03-15T09:46:05.601Z,7.97
2023-03-15T09:49:05.090Z,7.87
2023-03-15T09:51:41.443Z,7.96
2023-03-15T09:54:17.087Z,8.72
2023-03-15T09:57:04.577Z,9.25
2023-03-15T09:59:49.077Z,9.39
2023-03-15T10:02:25.793Z,9.62
2023-03-15T10:05:01.596Z,9.85
2023-03-15T10:07:28.646Z,9.95
2023-03-15T10:09:58.824Z,9.57
2023-03-15T10:12:41.099Z,9.32
2023-03-15T10:15:56.806Z,9.05
2023-03-15T10:19:02.002Z,8.72
2023-03-15T10:21:53.601Z,8.78
2023-03-15T10:24:45.966Z,9.32
2023-03-15T10:27:43.634Z,9.60
2023-03-15T10:30:20.508Z,9.78
2023-03-15T10:33:01.809Z,9.63
2023-03-15T10:35:28.920Z,9.48
2023-03-15T10:37:56.214Z,9.01
2023-03-15T10:40:46.174Z,8.72
2023-03-15T10:43:25.487Z,8.52
2023-03-15T10:46:09.277Z,8.32
2023-03-15T10:49:08.501Z,8.18
2023-03-15T10:51:43.673Z,8.07
2023-03-15T10:54:25.431Z,7.97
2023-03-15T10:57:01.965Z,7.97
2023-03-15T10:59:34.313Z,7.99
2023-03-15T11:02:27.714Z,7.91
2023-03-15T11:05:12.321Z,7.69
2023-03-15T11:07:59.009Z,7.74
2023-03-15T11:10:33.217Z,7.78
2023-03-15T11:13:22.557Z,7.67
2023-03-15T11:16:04.500Z,7.74
2023-03-15T11:18:47.236Z,7.85
2023-03-15T11:21:18.623Z,7.68
2023-03-15T11:23:51.541Z,7.70
2023-03-15T11:26:33.161Z,7.79
2023-03-15T11:29:26.879Z,7.96
2023-03-15T11:31:55.830Z,8.04
2023-03-15T11:34:31.213Z,8.28
2023-03-15T11:37:08.898Z,8.23
2023-03-15T11:40:11.223Z,8.12
2023-03-15T11:43:08.215Z,8.14
2023-03-15T11:46:00.159Z,8.08
2023-03-15T11:48:42.471Z,7.78
2023-03-15T11:51:13.245Z,7.64
2023-03-15T11:54:16.352Z,7.54
2023-03-15T11:57:03.734Z,7.49
2023-03-15T11:59:37.953Z,7.46
2023-03-15T12:02:11.284Z,7.46
2023-03-15T12:04:46.600Z,7.38
2023-03-15T12:07:24.501Z,7.38
2023-03-15T12:10:04.521Z,7.29
2023-03-15T12:12:33.344Z,7.24
2023-03-15T12:15:20.962Z,7.05
2023-03-15T12:18:06.761Z,6.79
2023-03-15T12:20:45.870Z,6.49
2023-03-15T12:23:18.473Z,6.14
2023-03-15T12:26:07.661Z,6.06
2023-03-15T12:28:50.485Z,5.96
2023-03-15T12:31:18.274Z,6.05
2023-03-15T12:33:58.378Z,6.06
2023-03-15T12:36:39.618Z,6.24
2023-03-15T12:39:15.504Z,6.32
2023-03-15T12:41:49.195Z,6.44
2023-03-15T12:44:21.895Z,6.32
2023-03-15T12:46:48.671Z,6.20
2023-03-15T12:49:24.605Z,6.14
2023-03-15T12:52:16.493Z,6.15
2023-03-15T12:55:05.834Z,6.16
2023-03-15T12:57:45.281Z,6.17
2023-03-15T13:00:21.182Z,6.11
2023-03-15T13:03:19.043Z,6.01
2023-03-15T13:06:21.523Z,5.85
2023-03-15T13:09:42.182Z,5.75
2023-03-15T13:12:20.567Z,5.67
2023-03-15T13:14:50.039Z,5.65
2023-03-15T13:17:46.655Z,5.68
2023-03-15T13:20:34.862Z,5.69
2023-03-15T13:23:22.813Z,5.53
2023-03-15T13:26:14.008Z,5.58
2023-03-15T13:28:48.288Z,5.75
2023-03-15T13:31:25.273Z,5.96
2023-03-15T13:33:57.415Z,5.98
2023-03-15T13:36:38.542Z,6.10
2023-03-15T13:39:17.316Z,6.15
2023-03-15T13:41:44.248Z,6.38
2023-03-15T13:44:21.969Z,7.19
2023-03-15T13:46:50.918Z,7.84
2023-03-15T13:49:20.258Z,7.20
2023-03-15T13:51:50.533Z,7.68
2023-03-15T13:54:34.041Z,8.07
2023-03-15T13:57:07.245Z,8.43
2023-03-15T14:00:00.176Z,8.69
2023-03-15T14:02:52.490Z,7.88
2023-03-15T14:05:27.455Z,7.42
2023-03-15T14:08:07.308Z,7.23
2023-03-15T14:10:38.978Z,7.26
2023-03-15T14:13:27.962Z,7.17
2023-03-15T14:16:05.460Z,7.05
2023-03-15T14:18:38.553Z,6.92
2023-03-15T14:21:19.860Z,6.83
2023-03-15T14:23:49.357Z,6.47
2023-03-15T14:26:22.655Z,6.11
2023-03-15T14:29:16.416Z,5.76
2023-03-15T14:31:50.754Z,5.45
2023-03-15T14:34:44.777Z,5.22
2023-03-15T14:37:42.141Z,4.92
2023-03-15T14:40:37.271Z,4.74
2023-03-15T14:43:07.486Z,4.66
2023-03-15T14:45:38.747Z,4.73
2023-03-15T14:48:13.822Z,4.79
2023-03-15T14:50:44.232Z,4.67
2023-03-15T14:53:18.905Z,4.81
2023-03-15T14:55:45.834Z,4.79
2023-03-15T14:58:21.644Z,4.82
2023-03-15T15:00:55.342Z,4.90
2023-03-15T15:03:46.366Z,5.00
2023-03-15T15:06:15.830Z,4.89
2023-03-15T15:08:47.523Z,4.89
2023-03-15T15:11:15.908Z,4.90
2023-03-15T15:13:43.133Z,4.86
2023-03-15T15:16:10.259Z,4.88
2023-03-15T15:18:38.217Z,5.02
2023-03-15T15:21:13.192Z,4.94
2023-03-15T15:23:57.497Z,4.93
2023-03-15T15:26:29.944Z,4.88
2023-03-15T15:28:57.935Z,4.91
2023-03-15T15:31:28.286Z,4.83
2023-03-15T15:33:56.662Z,4.85
2023-03-15T15:36:37.858Z,4.89
2023-03-15T15:39:18.028Z,4.99
2023-03-15T15:41:44.873Z,4.96
2023-03-15T15:44:17.635Z,4.98
2023-03-15T15:46:44.461Z,4.91
2023-03-15T15:49:11.370Z,4.86
2023-03-15T15:51:49.618Z,4.81
2023-03-15T15:54:26.577Z,4.89
2023-03-15T15:56:57.687Z,5.02
2023-03-15T15:59:25.698Z,5.09
2023-03-15T16:02:02.749Z,5.17
2023-03-15T16:04:30.906Z,5.24
2023-03-15T16:07:04.269Z,5.35
2023-03-15T16:09:37.155Z,5.34
2023-03-15T16:12:13.722Z,5.33
2023-03-15T16:14:41.788Z,5.37
2023-03-15T16:17:22.432Z,5.33
2023-03-15T16:19:51.009Z,5.32
2023-03-15T16:22:21.655Z,5.26
2023-03-15T16:24:53.342Z,5.25
2023-03-15T16:27:26.876Z,5.33
2023-03-15T16:29:55.868Z,5.30
2023-03-15T16:32:40.993Z,5.37
2023-03-15T16:35:15.288Z,5.32
2023-03-15T16:37:43.402Z,5.24
2023-03-15T16:40:32.764Z,5.14
2023-03-15T16:43:00.871Z,5.21
2023-03-15T16:45:28.571Z,5.25
2023-03-15T16:47:56.418Z,5.19
2023-03-15T16:50:24.203Z,5.18
2023-03-15T16:52:56.677Z,5.06
2023-03-15T16:55:32.916Z,4.90
2023-03-15T16:58:14.231Z,4.92
2023-03-15T17:00:44.276Z,4.95
2023-03-15T17:03:12.596Z,4.99
2023-03-15T17:05:41.553Z,5.07
2023-03-15T17:08:16.154Z,5.05
2023-03-15T17:10:44.265Z,5.02
2023-03-15T17:13:17.202Z,5.04
2023-03-15T17:15:44.427Z,5.04
2023-03-15T17:18:19.197Z,5.00
2023-03-15T17:20:49.376Z,5.00
2023-03-15T17:23:17.422Z,4.95
2023-03-15T17:25:44.316Z,5.03
2023-03-15T17:28:11.229Z,4.88
2023-03-15T17:30:38.333Z,4.75
2023-03-15T17:33:06.875Z,4.56
2023-03-15T17:35:39.694Z,4.48
2023-03-15T17:38:14.722Z,4.37
2023-03-15T17:40:42.796Z,4.27
2023-03-15T17:43:15.639Z,4.34
2023-03-15T17:45:43.118Z,4.19
2023-03-15T17:48:10.416Z,4.10
2023-03-15T17:50:38.162Z,4.03
2023-03-15T17:53:16.469Z,4.04
2023-03-15T17:55:44.401Z,4.08
2023-03-15T17:58:20.626Z,4.22
2023-03-15T18:00:49.993Z,4.02
2023-03-15T18:03:18.029Z,3.87
2023-03-15T18:05:45.616Z,3.77
2023-03-15T18:08:19.176Z,3.76
2023-03-15T18:10:47.792Z,3.82
2023-03-15T18:13:25.774Z,3.84
2023-03-15T18:15:55.788Z,3.87
2023-03-15T18:18:22.711Z,3.82
2023-03-15T18:20:49.693Z,3.71
2023-03-15T18:23:18.011Z,3.66
2023-03-15T18:25:45.029Z,3.64
2023-03-15T18:28:12.154Z,3.61
2023-03-15T18:30:39.629Z,3.59
2023-03-15T18:33:07.194Z,3.60
2023-03-15T18:35:36.386Z,3.59
2023-03-15T18:38:04.900Z,3.49
2023-03-15T18:40:33.724Z,3.49
2023-03-15T18:43:01.451Z,3.49
2023-03-15T18:45:32.406Z,3.49
2023-03-15T18:47:59.928Z,3.41
2023-03-15T18:50:28.421Z,3.36
2023-03-15T18:52:56.691Z,3.31
2023-03-15T18:55:24.717Z,3.17
2023-03-15T18:57:55.038Z,3.04
2023-03-15T19:00:27.122Z,2.97
2023-03-15T19:02:58.148Z,3.00
2023-03-15T19:05:26.713Z,2.98
2023-03-15T19:07:53.761Z,2.96
2023-03-15T19:10:23.010Z,3.00
2023-03-15T19:12:53.114Z,2.99
2023-03-15T19:15:22.287Z,2.94
2023-03-15T19:17:52.577Z,2.97
2023-03-15T19:20:21.835Z,2.97
2023-03-15T19:22:51.112Z,2.95
2023-03-15T19:25:18.530Z,2.92
2023-03-15T19:27:45.819Z,2.87
2023-03-15T19:30:18.879Z,2.79
2023-03-15T19:32:48.009Z,2.76
2023-03-15T19:35:16.596Z,2.68
2023-03-15T19:37:44.480Z,2.74
2023-03-15T19:40:13.945Z,2.67
2023-03-15T19:42:41.600Z,2.69
2023-03-15T19:45:09.869Z,2.77
2023-03-15T19:47:36.686Z,2.64
2023-03-15T19:50:05.720Z,2.54
2023-03-15T19:52:33.440Z,2.46
2023-03-15T19:55:04.097Z,2.46
2023-03-15T19:57:30.890Z,2.52
2023-03-15T19:59:57.927Z,2.42
2023-03-15T20:02:25.822Z,2.39
2023-03-15T20:04:54.027Z,2.37
2023-03-15T20:07:20.863Z,2.19
2023-03-15T20:09:47.725Z,2.12
2023-03-15T20:12:14.610Z,2.06
2023-03-15T20:14:41.778Z,2.14
2023-03-15T20:17:08.758Z,2.19
2023-03-15T20:19:36.155Z,2.14
2023-03-15T20:22:06.240Z,2.19
2023-03-15T20:24:33.521Z,2.24
2023-03-15T20:27:00.747Z,2.29
2023-03-15T20:29:27.886Z,2.29
2023-03-15T20:31:54.856Z,2.28
2023-03-15T20:34:22.235Z,2.22
2023-03-15T20:36:49.322Z,2.18
2023-03-15T20:39:18.356Z,2.10
2023-03-15T20:41:45.260Z,2.07
2023-03-15T20:44:12.819Z,2.06
2023-03-15T20:46:39.971Z,2.05
2023-03-15T20:49:07.078Z,2.14
2023-03-15T20:51:34.674Z,2.25
2023-03-15T20:54:01.747Z,2.28
2023-03-15T20:56:28.734Z,2.17
2023-03-15T20:58:56.281Z,2.15
2023-03-15T21:01:23.117Z,2.14
2023-03-15T21:03:50.348Z,2.19
2023-03-15T21:06:17.407Z,2.11
2023-03-15T21:08:46.003Z,2.12
2023-03-15T21:11:15.772Z,2.15
2023-03-15T21:13:42.559Z,2.15
2023-03-15T21:16:12.332Z,2.19
2023-03-15T21:18:39.394Z,2.18
2023-03-15T21:21:07.813Z,2.15
2023-03-15T21:23:36.005Z,2.14
2023-03-15T21:26:07.250Z,2.15
2023-03-15T21:28:34.395Z,2.21
2023-03-15T21:31:01.473Z,2.16
2023-03-15T21:33:30.907Z,2.15
2023-03-15T21:35:59.514Z,2.23
2023-03-15T21:38:32.222Z,2.09
2023-03-15T21:40:59.956Z,1.99
2023-03-15T21:43:30.786Z,1.99
2023-03-15T21:46:11.905Z,2.06
2023-03-15T21:48:39.026Z,2.07
2023-03-15T21:51:07.571Z,1.95
2023-03-15T21:53:36.242Z,1.97
2023-03-15T21:56:04.322Z,1.98
2023-03-15T21:58:31.880Z,2.01
2023-03-15T22:01:05.842Z,1.99
2023-03-15T22:03:35.709Z,2.04
2023-03-15T22:06:03.052Z,2.10
2023-03-15T22:08:29.942Z,1.99
2023-03-15T22:10:58.621Z,1.97
2023-03-15T22:13:26.647Z,2.03
2023-03-15T22:15:56.607Z,1.97
2023-03-15T22:18:23.857Z,1.89
2023-03-15T22:20:51.510Z,1.95
2023-03-15T22:23:22.725Z,1.93
2023-03-15T22:25:52.836Z,1.94
2023-03-15T22:28:22.179Z,1.96
2023-03-15T22:30:49.970Z,2.03
2023-03-15T22:33:19.281Z,2.03
2023-03-15T22:35:46.182Z,2.02
2023-03-15T22:38:14.116Z,2.08
2023-03-15T22:40:41.282Z,2.01
2023-03-15T22:43:09.013Z,2.00
2023-03-15T22:45:37.544Z,2.01
2023-03-15T22:48:04.685Z,2.00
2023-03-15T22:50:32.140Z,1.94
2023-03-15T22:52:58.917Z,1.96
2023-03-15T22:55:26.218Z,1.89
2023-03-15T22:57:54.125Z,1.92
2023-03-15T23:00:23.449Z,1.88
2023-03-15T23:02:53.103Z,1.83
2023-03-15T23:05:20.135Z,1.89
2023-03-15T23:07:47.602Z,1.88
2023-03-15T23:10:15.174Z,1.94
2023-03-15T23:12:42.187Z,1.88
2023-03-15T23:15:10.384Z,1.82
2023-03-15T23:17:37.237Z,1.83
2023-03-15T23:20:07.104Z,1.84
2023-03-15T23:22:34.085Z,1.84
2023-03-15T23:25:01.396Z,1.80
2023-03-15T23:27:28.559Z,1.79
2023-03-15T23:29:55.508Z,1.71
2023-03-15T23:32:25.041Z,1.68
2023-03-15T23:34:53.620Z,1.65
2023-03-15T23:37:24.246Z,1.67
2023-03-15T23:39:53.328Z,1.63
2023-03-15T23:42:25.706Z,1.66
2023-03-15T23:44:53.679Z,1.73
2023-03-15T23:47:22.894Z,1.79
2023-03-15T23:49:51.151Z,1.81
2023-03-15T23:52:19.044Z,1.76
2023-03-15T23:54:45.961Z,1.70
2023-03-15T23:57:15.974Z,1.69
2023-03-15T23:59:43.340Z,1.66
